Time;durP1;ratioP1;P1;durP2;ratioP2;P2;SDS_P1;SDS_P2;PMS_P1;PMS_P2;Temp;Humidity;BMP_temperature;BMP_pressure;BME280_temperature;BME280_humidity;BME280_pressure;Samples;Min_cycle;Max_cycle;Signal;HPM_P1;HPM_P2
2021/11/24 00:02:38;;;;;;;5.43;3.70;;;5.30;1.00;;;;;;4997483;28;20492;-76
2021/11/24 00:05:16;;;;;;;5.60;4.07;;;5.40;1.00;;;;;;5012816;28;20451;-77
2021/11/24 00:11:38;;;;;;;6.90;3.73;;;5.40;1.00;;;;;;4996303;28;20519;-76
2021/11/24 00:14:09;;;;;;;6.40;3.57;;;5.50;1.00;;;;;;5006946;28;20408;-76
2021/11/24 00:16:45;;;;;;;7.80;3.77;;;5.50;1.00;;;;;;5015149;28;20427;-76
2021/11/24 00:22:32;;;;;;;5.20;3.33;;;5.60;1.00;;;;;;5006879;28;20476;-76
2021/11/24 00:25:04;;;;;;;4.70;3.27;;;5.50;1.00;;;;;;5015369;28;21070;-77
2021/11/24 00:27:50;;;;;;;18.87;4.20;;;5.60;1.00;;;;;;5014572;28;20400;-76
2021/11/24 00:30:46;;;;;;;5.03;3.23;;;5.60;1.00;;;;;;5005990;28;20412;-76
2021/11/24 00:33:50;;;;;;;8.60;3.70;;;5.60;1.00;;;;;;5002983;28;20423;-77
2021/11/24 00:36:16;;;;;;;8.03;4.13;;;5.60;1.00;;;;;;5014890;28;20443;-76
2021/11/24 00:39:26;;;;;;;8.27;3.90;;;5.70;1.00;;;;;;5015554;28;20439;-77
2021/11/24 00:42:32;;;;;;;5.27;3.43;;;5.70;1.00;;;;;;5015525;28;20177;-77
2021/11/24 00:45:22;;;;;;;7.73;3.37;;;5.70;1.00;;;;;;5015157;28;20428;-77
2021/11/24 00:48:04;;;;;;;4.20;3.53;;;5.70;1.00;;;;;;5014788;28;20407;-76
2021/11/24 00:50:33;;;;;;;9.80;4.40;;;5.80;1.00;;;;;;5014945;28;20418;-77
2021/11/24 00:53:44;;;;;;;15.23;3.83;;;5.80;1.00;;;;;;5014765;28;21004;-76
2021/11/24 00:56:15;;;;;;;8.67;3.77;;;5.80;1.00;;;;;;5014890;28;20482;-74
2021/11/24 00:58:41;;;;;;;4.30;3.20;;;5.80;1.00;;;;;;5011530;28;20416;-74
2021/11/24 01:01:09;;;;;;;6.57;3.90;;;5.80;1.00;;;;;;5014828;28;20883;-75
2021/11/24 01:03:34;;;;;;;5.30;4.23;;;5.80;1.00;;;;;;5009500;28;20173;-74
2021/11/24 01:06:09;;;;;;;5.27;3.70;;;5.80;1.00;;;;;;5005298;28;20426;-74
2021/11/24 01:08:34;;;;;;;5.30;3.57;;;5.80;1.00;;;;;;5014669;28;20573;-74
2021/11/24 01:11:00;;;;;;;3.77;3.30;;;5.80;1.00;;;;;;5014452;28;20448;-74
2021/11/24 01:13:27;;;;;;;7.87;4.20;;;5.80;1.00;;;;;;5003146;28;20523;-74
2021/11/24 01:15:52;;;;;;;7.53;4.20;;;5.80;1.00;;;;;;5014560;28;20517;-74
2021/11/24 01:18:18;;;;;;;5.57;4.23;;;5.90;1.00;;;;;;5014510;28;20408;-74
2021/11/24 01:20:57;;;;;;;4.93;4.10;;;5.90;1.00;;;;;;5014605;28;20176;-73
2021/11/24 01:23:23;;;;;;;5.80;4.07;;;5.80;1.00;;;;;;5010041;28;20860;-73
2021/11/24 01:25:49;;;;;;;3.83;3.40;;;;;;;;;;5014043;28;20423;-74
2021/11/24 01:28:14;;;;;;;6.90;4.10;;;5.80;1.00;;;;;;5013546;28;20185;-74
2021/11/24 01:30:45;;;;;;;5.83;4.03;;;5.80;1.00;;;;;;5014184;28;20408;-74
2021/11/24 01:33:10;;;;;;;7.37;4.30;;;5.80;1.00;;;;;;5014085;28;20659;-74
2021/11/24 01:35:36;;;;;;;7.13;3.67;;;5.80;1.00;;;;;;5014151;28;20428;-73
2021/11/24 01:38:02;;;;;;;19.80;4.17;;;5.80;1.00;;;;;;5014294;28;20427;-74
2021/11/24 01:40:28;;;;;;;6.67;3.30;;;5.80;1.00;;;;;;5014233;28;20169;-74
2021/11/24 01:42:57;;;;;;;11.37;4.10;;;5.80;1.00;;;;;;5014164;28;20459;-76
2021/11/24 01:45:33;;;;;;;5.40;3.40;;;5.80;1.00;;;;;;5008046;28;20181;-76
2021/11/24 01:48:50;;;;;;;9.33;3.53;;;5.80;1.00;;;;;;5013920;28;20428;-77
2021/11/24 01:58:00;;;;;;;6.40;3.63;;;5.70;1.00;;;;;;5005263;28;20386;-77
2021/11/24 02:01:14;;;;;;;6.67;3.83;;;5.70;1.00;;;;;;5014316;28;20886;-77
2021/11/24 02:03:51;;;;;;;4.57;3.47;;;5.80;1.00;;;;;;5011834;28;20482;-77
2021/11/24 02:06:48;;;;;;;7.00;3.63;;;5.70;1.00;;;;;;5014149;28;20732;-76
2021/11/24 02:09:27;;;;;;;6.30;3.87;;;5.70;1.00;;;;;;5003661;28;20466;-77
2021/11/24 02:11:57;;;;;;;6.87;3.77;;;5.70;1.00;;;;;;5014103;28;20443;-74
2021/11/24 02:14:23;;;;;;;6.60;3.80;;;5.70;1.00;;;;;;5013821;28;20478;-74
2021/11/24 02:16:53;;;;;;;12.43;3.50;;;5.70;1.00;;;;;;5013761;28;20795;-74
2021/11/24 02:19:34;;;;;;;5.60;3.77;;;5.70;1.00;;;;;;5013699;28;20420;-74
2021/11/24 02:22:01;;;;;;;7.27;3.73;;;5.70;1.00;;;;;;5002243;28;20500;-74
2021/11/24 02:24:33;;;;;;;4.87;3.10;;;5.60;1.00;;;;;;5013759;28;20894;-74
2021/11/24 02:27:00;;;;;;;5.80;3.57;;;5.60;1.00;;;;;;5014036;28;20427;-73
2021/11/24 02:29:33;;;;;;;6.23;3.60;;;5.60;1.00;;;;;;5000213;28;20876;-74
2021/11/24 02:32:01;;;;;;;6.43;3.17;;;5.70;1.00;;;;;;5013261;28;20815;-74
2021/11/24 02:34:28;;;;;;;5.37;3.70;;;5.60;1.00;;;;;;5013595;28;20428;-74
2021/11/24 02:36:55;;;;;;;4.17;2.90;;;5.60;1.00;;;;;;5013709;28;20411;-73
2021/11/24 02:39:21;;;;;;;7.60;3.67;;;5.60;1.00;;;;;;5004724;28;20745;-73
2021/11/24 02:41:47;;;;;;;8.90;3.83;;;5.60;1.00;;;;;;5017372;28;20507;-74
2021/11/24 02:44:30;;;;;;;6.70;4.20;;;5.60;1.00;;;;;;5012854;28;21057;-77
2021/11/24 02:47:32;;;;;;;7.50;3.90;;;5.70;1.00;;;;;;5017740;28;20396;-77
2021/11/24 02:50:15;;;;;;;5.07;3.50;;;5.60;1.00;;;;;;5018005;28;20510;-76
2021/11/24 02:52:45;;;;;;;7.73;4.20;;;5.60;1.00;;;;;;5017137;28;20464;-76
2021/11/24 02:55:13;;;;;;;6.37;3.27;;;5.60;1.00;;;;;;5017273;28;20411;-76
2021/11/24 02:57:57;;;;;;;5.70;3.33;;;5.60;1.00;;;;;;5017655;28;20406;-76
2021/11/24 03:00:45;;;;;;;7.13;3.20;;;5.60;1.00;;;;;;5017121;28;20847;-76
2021/11/24 03:03:15;;;;;;;13.13;4.10;;;5.60;1.00;;;;;;5017159;28;20415;-76
2021/11/24 03:05:52;;;;;;;5.37;3.73;;;5.60;1.00;;;;;;5017193;28;20440;-76
2021/11/24 03:08:27;;;;;;;8.00;3.50;;;5.60;1.00;;;;;;5016638;28;20951;-76
2021/11/24 03:14:15;;;;;;;3.20;2.63;;;5.60;1.00;;;;;;5012898;28;20395;-74
2021/11/24 03:16:40;;;;;;;4.43;3.30;;;5.60;1.00;;;;;;5016523;28;20400;-74
2021/11/24 03:19:06;;;;;;;3.83;3.37;;;5.60;1.00;;;;;;5016694;28;20408;-74
2021/11/24 03:21:32;;;;;;;6.97;3.90;;;5.60;1.00;;;;;;5016848;28;20199;-74
2021/11/24 03:24:03;;;;;;;5.53;3.20;;;5.60;1.00;;;;;;5016426;28;20686;-74
2021/11/24 03:26:29;;;;;;;4.00;3.13;;;;;;;;;;5016289;28;20185;-73
2021/11/24 03:28:55;;;;;;;6.07;2.90;;;5.60;1.00;;;;;;5016827;28;20443;-74
2021/11/24 03:31:21;;;;;;;7.93;3.53;;;5.60;1.00;;;;;;5016187;28;20977;-74
2021/11/24 03:33:51;;;;;;;6.50;3.23;;;5.60;1.00;;;;;;5014980;28;20180;-74
2021/11/24 03:36:17;;;;;;;6.40;3.40;;;5.60;1.00;;;;;;5016315;28;20173;-74
2021/11/24 03:38:45;;;;;;;5.20;3.20;;;5.60;1.00;;;;;;5016315;28;20414;-74
2021/11/24 03:41:10;;;;;;;5.53;3.40;;;5.60;1.00;;;;;;5016356;28;20494;-74
2021/11/24 03:43:45;;;;;;;11.23;4.40;;;5.60;1.00;;;;;;5016396;28;20500;-74
2021/11/24 03:46:11;;;;;;;8.20;3.60;;;5.60;1.00;;;;;;5015882;28;20207;-74
2021/11/24 03:48:36;;;;;;;11.50;3.37;;;5.60;1.00;;;;;;5016287;28;20455;-73
2021/11/24 03:51:02;;;;;;;4.57;3.50;;;5.60;1.00;;;;;;5014862;28;20424;-73
2021/11/24 03:53:28;;;;;;;6.33;3.70;;;5.60;1.00;;;;;;5015596;28;20219;-74
2021/11/24 03:55:54;;;;;;;8.13;3.73;;;5.60;1.00;;;;;;5022614;28;20180;-74
2021/11/24 03:58:19;;;;;;;15.10;3.77;;;5.60;1.00;;;;;;5016236;28;20208;-74
2021/11/24 04:00:51;;;;;;;5.10;3.37;;;5.60;1.00;;;;;;5015893;28;20181;-74
2021/11/24 04:03:21;;;;;;;5.00;3.60;;;5.60;1.00;;;;;;5009654;28;20178;-74
2021/11/24 04:05:46;;;;;;;5.80;3.20;;;5.60;1.00;;;;;;5011340;28;20427;-73
2021/11/24 04:08:15;;;;;;;4.50;3.60;;;5.60;1.00;;;;;;5015749;28;20507;-74
2021/11/24 04:10:40;;;;;;;6.97;3.93;;;5.60;1.00;;;;;;5002979;28;20181;-74
2021/11/24 04:13:09;;;;;;;11.17;4.20;;;5.60;1.00;;;;;;5015668;28;20459;-74
2021/11/24 04:15:34;;;;;;;5.53;3.83;;;5.60;1.00;;;;;;5015694;28;20168;-74
2021/11/24 04:18:03;;;;;;;4.50;3.43;;;5.60;1.00;;;;;;5015629;28;20888;-74
2021/11/24 04:20:45;;;;;;;7.20;3.43;;;5.60;1.00;;;;;;5015475;28;20173;-74
2021/11/24 04:23:15;;;;;;;11.63;3.37;;;5.60;1.00;;;;;;5015149;28;20510;-74
2021/11/24 04:25:41;;;;;;;6.60;3.73;;;5.60;1.00;;;;;;5015712;28;20412;-74
2021/11/24 04:28:09;;;;;;;8.20;4.40;;;5.60;1.00;;;;;;5014542;28;20815;-74
2021/11/24 04:30:45;;;;;;;8.30;3.90;;;5.60;1.00;;;;;;5015350;28;20192;-73
2021/11/24 04:33:21;;;;;;;4.87;3.67;;;5.50;1.00;;;;;;5008549;28;20447;-74
2021/11/24 04:35:48;;;;;;;6.60;3.60;;;5.60;1.00;;;;;;5015169;28;20422;-74
2021/11/24 04:38:21;;;;;;;3.57;3.27;;;5.50;1.00;;;;;;5015430;28;20466;-74
2021/11/24 04:40:51;;;;;;;4.20;3.27;;;5.60;1.00;;;;;;5015348;28;20415;-74
2021/11/24 04:43:38;;;;;;;16.37;4.33;;;5.50;1.00;;;;;;5015353;28;20431;-76
2021/11/24 04:46:09;;;;;;;5.47;3.40;;;5.50;1.00;;;;;;5015118;28;20447;-76
2021/11/24 04:49:02;;;;;;;5.83;3.80;;;5.50;1.00;;;;;;5015176;28;20930;-76
2021/11/24 04:51:33;;;;;;;4.40;3.00;;;5.50;1.00;;;;;;5014905;28;20961;-76
2021/11/24 04:54:50;;;;;;;5.30;3.10;;;5.50;1.00;;;;;;5015179;28;20423;-76
2021/11/24 04:58:02;;;;;;;5.07;3.30;;;5.50;1.00;;;;;;5014924;28;20801;-76
2021/11/24 05:00:51;;;;;;;3.50;3.13;;;5.50;1.00;;;;;;5015333;28;20494;-76
2021/11/24 05:03:16;;;;;;;7.60;3.87;;;5.50;1.00;;;;;;5015013;28;20446;-76
2021/11/24 05:05:51;;;;;;;4.00;3.50;;;5.50;1.00;;;;;;5014699;28;20412;-77
2021/11/24 05:08:34;;;;;;;3.00;2.77;;;5.50;1.00;;;;;;5015122;28;20172;-76
2021/11/24 05:11:10;;;;;;;4.27;3.03;;;5.50;1.00;;;;;;5014602;28;20443;-76
2021/11/24 05:13:46;;;;;;;4.90;3.33;;;5.40;1.00;;;;;;5015129;28;20448;-76
2021/11/24 05:16:11;;;;;;;8.27;3.47;;;5.50;1.00;;;;;;5014519;28;20507;-77
2021/11/24 05:19:12;;;;;;;4.53;3.10;;;5.50;1.00;;;;;;5014643;28;20459;-76
2021/11/24 05:22:04;;;;;;;4.77;3.20;;;5.50;1.00;;;;;;5014870;28;20620;-76
2021/11/24 05:24:51;;;;;;;15.63;2.73;;;5.50;1.00;;;;;;5014372;28;20841;-76
2021/11/24 05:27:38;;;;;;;2.70;2.47;;;5.50;1.00;;;;;;5014477;28;20807;-76
2021/11/24 05:30:05;;;;;;;4.37;3.07;;;5.50;1.00;;;;;;5001156;28;20462;-74
2021/11/24 05:32:30;;;;;;;3.67;2.90;;;5.40;1.00;;;;;;5006868;28;20467;-74
2021/11/24 05:34:56;;;;;;;10.73;3.50;;;;;;;;;;5014029;28;20423;-74
2021/11/24 05:37:22;;;;;;;5.00;3.60;;;5.40;1.00;;;;;;5005300;28;20690;-74
2021/11/24 05:39:48;;;;;;;4.70;3.30;;;5.40;1.00;;;;;;5013960;28;20428;-74
2021/11/24 05:42:15;;;;;;;5.20;3.63;;;5.40;1.00;;;;;;5013664;28;20177;-74
2021/11/24 05:44:49;;;;;;;13.47;3.70;;;5.40;1.00;;;;;;5014340;28;20260;-73
2021/11/24 05:47:50;;;;;;;4.30;3.10;;;;;;;;;;5013712;28;20490;-74
2021/11/24 05:50:15;;;;;;;3.80;3.33;;;5.40;1.00;;;;;;5013694;28;20428;-74
2021/11/24 05:52:45;;;;;;;10.07;3.67;;;5.50;1.00;;;;;;5003946;28;20491;-74
2021/11/24 05:55:10;;;;;;;6.00;3.00;;;5.40;1.00;;;;;;5017116;28;20835;-73
2021/11/24 05:57:36;;;;;;;21.00;3.70;;;5.40;1.00;;;;;;5013969;28;20450;-73
2021/11/24 06:00:04;;;;;;;4.70;3.47;;;5.40;1.00;;;;;;5013993;28;20173;-73
2021/11/24 06:02:30;;;;;;;8.87;3.67;;;5.40;1.00;;;;;;5013801;28;20815;-74
2021/11/24 06:04:57;;;;;;;5.70;3.47;;;5.40;1.00;;;;;;5013486;28;20459;-73
2021/11/24 06:07:27;;;;;;;3.70;3.07;;;5.40;1.00;;;;;;5013437;28;20264;-74
2021/11/24 06:09:57;;;;;;;4.83;3.50;;;5.50;1.00;;;;;;5013327;28;20914;-74
2021/11/24 06:12:23;;;;;;;4.50;4.07;;;5.40;1.00;;;;;;5013900;28;20451;-74
2021/11/24 06:14:49;;;;;;;3.07;2.87;;;5.40;1.00;;;;;;5017236;28;20607;-74
2021/11/24 06:17:15;;;;;;;7.37;4.10;;;5.40;1.00;;;;;;5013990;28;20494;-73
2021/11/24 06:19:46;;;;;;;10.47;4.47;;;5.40;1.00;;;;;;5016985;28;20900;-73
2021/11/24 06:22:11;;;;;;;6.60;3.70;;;5.40;1.00;;;;;;5016450;28;20969;-74
2021/11/24 06:24:38;;;;;;;5.10;3.90;;;5.40;1.00;;;;;;5017040;28;20470;-74
2021/11/24 06:27:04;;;;;;;4.87;3.50;;;5.40;1.00;;;;;;5017363;28;20251;-74
2021/11/24 06:29:30;;;;;;;6.60;4.33;;;5.50;1.00;;;;;;5015884;28;20420;-73
2021/11/24 06:31:55;;;;;;;5.13;3.70;;;5.50;1.00;;;;;;5020252;28;20475;-73
2021/11/24 06:34:21;;;;;;;3.97;3.27;;;5.50;1.00;;;;;;5016936;28;20176;-73
2021/11/24 06:36:47;;;;;;;8.70;4.27;;;5.50;1.00;;;;;;5017027;28;20177;-73
2021/11/24 06:39:15;;;;;;;4.70;3.77;;;5.40;1.00;;;;;;5013609;28;20177;-73
2021/11/24 06:42:09;;;;;;;5.90;4.00;;;5.50;1.00;;;;;;5017207;28;20895;-75
2021/11/24 06:44:35;;;;;;;5.33;3.80;;;5.50;1.00;;;;;;5004560;28;20511;-74
2021/11/24 06:47:41;;;;;;;10.20;4.10;;;5.40;1.00;;;;;;5015273;28;20419;-76
2021/11/24 06:50:22;;;;;;;8.50;3.67;;;5.40;1.00;;;;;;5015200;28;20435;-76
2021/11/24 06:52:57;;;;;;;4.87;3.47;;;5.40;1.00;;;;;;5017243;28;20827;-76
2021/11/24 06:55:45;;;;;;;9.30;4.00;;;5.40;1.00;;;;;;5017205;28;20416;-77
2021/11/24 06:58:21;;;;;;;7.70;4.00;;;5.50;1.00;;;;;;5017055;28;20420;-76
2021/11/24 07:01:03;;;;;;;5.97;4.10;;;5.50;1.00;;;;;;5017047;28;20918;-76
2021/11/24 07:03:29;;;;;;;6.27;3.60;;;5.50;1.00;;;;;;5017004;28;20423;-76
2021/11/24 07:06:32;;;;;;;7.20;3.90;;;5.50;1.00;;;;;;5017084;28;20416;-76
2021/11/24 07:09:04;;;;;;;8.10;4.27;;;5.50;1.00;;;;;;5014673;28;20424;-76
2021/11/24 07:11:40;;;;;;;23.20;4.07;;;5.50;1.00;;;;;;5016652;28;20483;-76
2021/11/24 07:14:08;;;;;;;8.77;4.70;;;5.50;1.00;;;;;;5017278;28;20442;-76
2021/11/24 07:16:34;;;;;;;8.57;4.27;;;5.50;1.00;;;;;;5016733;28;20491;-73
2021/11/24 07:19:09;;;;;;;6.73;3.90;;;5.60;1.00;;;;;;5013323;28;20428;-73
2021/11/24 07:21:40;;;;;;;6.30;3.33;;;5.50;1.00;;;;;;5016572;28;20818;-74
2021/11/24 07:24:06;;;;;;;4.73;3.60;;;5.60;1.00;;;;;;5007921;28;20503;-73
2021/11/24 07:26:32;;;;;;;7.60;3.70;;;5.60;1.00;;;;;;5015946;28;20515;-73
2021/11/24 07:29:03;;;;;;;6.27;3.97;;;5.70;1.00;;;;;;5004991;28;20181;-74
2021/11/24 07:31:39;;;;;;;11.03;4.10;;;5.70;1.00;;;;;;5015294;28;20201;-75
2021/11/24 07:34:05;;;;;;;7.57;4.80;;;5.80;1.00;;;;;;5008652;28;20439;-74
2021/11/24 07:36:31;;;;;;;8.60;4.60;;;5.80;1.00;;;;;;5009686;28;20401;-74
2021/11/24 07:39:03;;;;;;;6.80;4.60;;;5.80;1.00;;;;;;5015538;28;20907;-74
2021/11/24 07:41:28;;;;;;;5.50;3.87;;;5.90;1.00;;;;;;5004080;28;20466;-74
2021/11/24 07:43:54;;;;;;;5.23;3.93;;;;;;;;;;5015997;28;20911;-71
2021/11/24 07:46:20;;;;;;;7.20;4.00;;;5.90;1.00;;;;;;5016448;28;20518;-76
2021/11/24 07:48:58;;;;;;;6.43;4.13;;;6.00;1.00;;;;;;5016632;28;20443;-76
2021/11/24 07:55:32;;;;;;;5.73;4.37;;;6.10;1.00;;;;;;5001230;28;20442;-76
2021/11/24 07:58:03;;;;;;;7.90;4.37;;;6.20;1.00;;;;;;5015656;28;20423;-76
2021/11/24 08:00:29;;;;;;;8.73;4.80;;;6.20;1.00;;;;;;5016016;28;20423;-76
2021/11/24 08:02:55;;;;;;;57.87;5.10;;;;;;;;;;5015755;28;20765;-73
2021/11/24 08:05:20;;;;;;;5.50;4.27;;;6.40;1.00;;;;;;5015494;28;20181;-74
2021/11/24 08:07:46;;;;;;;10.07;5.27;;;6.40;1.00;;;;;;5015252;28;20443;-73
2021/11/24 08:10:12;;;;;;;4.80;4.00;;;6.40;1.00;;;;;;5015461;28;20239;-76
2021/11/24 08:12:51;;;;;;;4.40;3.60;;;6.50;1.00;;;;;;5015857;28;20202;-75
2021/11/24 08:15:27;;;;;;;5.60;3.60;;;6.50;1.00;;;;;;5010101;28;20416;-74
2021/11/24 08:17:57;;;;;;;6.20;4.00;;;6.40;1.00;;;;;;5015780;28;20454;-77
2021/11/24 08:20:27;;;;;;;8.93;3.70;;;6.50;1.00;;;;;;5002585;28;20462;-77
2021/11/24 08:23:44;;;;;;;5.53;3.60;;;6.60;1.00;;;;;;5015319;28;20425;-78
2021/11/24 08:26:33;;;;;;;11.50;3.50;;;6.70;1.00;;;;;;5012585;28;20470;-77
2021/11/24 08:29:26;;;;;;;3.30;3.00;;;6.70;1.00;;;;;;5004593;28;20416;-76
2021/11/24 08:31:52;;;;;;;4.77;3.70;;;6.80;1.00;;;;;;5001203;28;20452;-73
2021/11/24 08:34:20;;;;;;;5.20;3.50;;;6.80;1.00;;;;;;5010772;28;20420;-73
2021/11/24 08:36:46;;;;;;;5.83;3.90;;;6.90;1.00;;;;;;5014444;28;20177;-74
2021/11/24 08:39:24;;;;;;;5.37;3.53;;;6.90;1.00;;;;;;5001863;28;20457;-73
2021/11/24 08:41:50;;;;;;;6.57;3.50;;;6.90;1.00;;;;;;5006066;28;20424;-73
2021/11/24 08:44:16;;;;;;;5.13;3.80;;;;;;;;;;5014559;28;20447;-73
2021/11/24 08:46:42;;;;;;;7.47;3.77;;;7.00;1.00;;;;;;5015057;28;20165;-73
2021/11/24 08:49:08;;;;;;;11.03;3.80;;;7.10;1.00;;;;;;5014727;28;20538;-73
2021/11/24 08:51:40;;;;;;;14.70;3.53;;;7.10;1.00;;;;;;5005022;28;20452;-73
2021/11/24 08:54:10;;;;;;;5.97;3.50;;;7.20;1.00;;;;;;5011512;28;20887;-73
2021/11/24 08:56:36;;;;;;;4.10;3.23;;;7.30;1.00;;;;;;5004854;28;20817;-73
2021/11/24 08:59:06;;;;;;;7.80;3.20;;;7.40;1.00;;;;;;5010368;28;20444;-73
2021/11/24 09:01:34;;;;;;;5.83;3.93;;;7.50;1.00;;;;;;5011745;28;20455;-73
2021/11/24 09:04:00;;;;;;;4.70;3.03;;;7.60;1.00;;;;;;5004660;28;20428;-73
2021/11/24 09:06:26;;;;;;;6.27;2.60;;;7.70;1.00;;;;;;5012699;28;20808;-73
2021/11/24 09:08:57;;;;;;;4.73;3.03;;;7.70;1.00;;;;;;5015519;28;20915;-73
2021/11/24 09:11:23;;;;;;;7.40;2.80;;;7.80;1.00;;;;;;5014332;28;20832;-76
2021/11/24 09:13:49;;;;;;;3.43;2.60;;;7.80;1.00;;;;;;5014483;28;20416;-75
2021/11/24 09:16:18;;;;;;;6.13;3.20;;;7.90;1.00;;;;;;5014238;28;20640;-74
2021/11/24 09:18:51;;;;;;;3.07;2.40;;;;;;;;;;5014549;28;20482;-74
2021/11/24 09:21:23;;;;;;;3.83;2.60;;;;;;;;;;5010723;28;20771;-74
2021/11/24 09:23:50;;;;;;;2.83;2.63;;;8.10;1.00;;;;;;5010609;28;20419;-74
2021/11/24 09:26:38;;;;;;;2.53;2.30;;;8.10;1.00;;;;;;5012995;28;20482;-73
2021/11/24 09:29:04;;;;;;;6.00;2.53;;;8.20;1.00;;;;;;5007646;28;20454;-73
2021/11/24 09:32:04;;;;;;;2.93;2.33;;;8.30;1.00;;;;;;5009869;28;20551;-77
2021/11/24 09:34:39;;;;;;;8.27;4.90;;;8.30;1.00;;;;;;5022935;28;20811;-75
2021/11/24 09:37:06;;;;;;;4.57;2.10;;;8.40;1.00;;;;;;5011351;28;20435;-75
2021/11/24 09:39:31;;;;;;;2.80;1.87;;;8.30;1.00;;;;;;5013287;28;20474;-75
2021/11/24 09:42:27;;;;;;;2.40;2.00;;;8.30;1.00;;;;;;5013853;28;20428;-76
2021/11/24 09:44:55;;;;;;;2.50;2.30;;;8.50;1.00;;;;;;5005962;28;20233;-75
2021/11/24 09:47:22;;;;;;;5.33;2.27;;;8.60;1.00;;;;;;5009403;28;20420;-73
2021/11/24 09:49:59;;;;;;;2.43;2.30;;;8.60;1.00;;;;;;5003597;28;20481;-74
2021/11/24 09:52:26;;;;;;;3.43;2.17;;;8.70;1.00;;;;;;5012495;28;20558;-73
2021/11/24 09:54:53;;;;;;;3.10;2.37;;;8.50;1.00;;;;;;5006764;28;20424;-73
2021/11/24 09:57:23;;;;;;;3.80;2.37;;;8.50;1.00;;;;;;5011068;28;20435;-74
2021/11/24 09:59:49;;;;;;;4.50;1.97;;;8.50;1.00;;;;;;5013568;28;20431;-73
2021/11/24 10:02:16;;;;;;;3.50;2.17;;;8.50;1.00;;;;;;5014084;28;20456;-75
2021/11/24 10:04:43;;;;;;;1.97;1.80;;;8.60;1.00;;;;;;5014082;28;20435;-75
2021/11/24 10:07:11;;;;;;;4.20;2.20;;;8.60;1.00;;;;;;5008024;28;20432;-75
2021/11/24 10:09:36;;;;;;;2.20;2.00;;;8.70;1.00;;;;;;5002128;28;20783;-75
2021/11/24 10:12:03;;;;;;;2.43;2.00;;;9.40;1.00;;;;;;5013778;28;20470;-76
2021/11/24 10:14:35;;;;;;;13.27;1.77;;;8.80;1.00;;;;;;5013771;28;20415;-75
2021/11/24 10:17:06;;;;;;;3.27;1.90;;;8.70;1.00;;;;;;5014059;28;20498;-75
2021/11/24 10:19:32;;;;;;;1.53;1.43;;;8.80;1.00;;;;;;5013604;28;20418;-75
2021/11/24 10:22:00;;;;;;;1.40;1.30;;;8.80;1.00;;;;;;5014071;28;20408;-76
2021/11/24 10:24:45;;;;;;;1.97;1.87;;;9.00;1.00;;;;;;5020222;28;20460;-76
2021/11/24 10:27:13;;;;;;;1.87;1.70;;;9.00;1.00;;;;;;5008837;28;20431;-76
2021/11/24 10:30:09;;;;;;;1.67;1.43;;;9.00;1.00;;;;;;5012628;28;20432;-76
2021/11/24 10:32:35;;;;;;;1.97;1.63;;;9.20;1.00;;;;;;5013122;28;20535;-73
2021/11/24 10:35:04;;;;;;;1.60;1.40;;;9.40;1.00;;;;;;5009942;28;20463;-73
2021/11/24 10:37:30;;;;;;;4.50;1.50;;;;;;;;;;5013150;28;20419;-74
2021/11/24 10:40:00;;;;;;;1.50;1.10;;;9.50;1.00;;;;;;5013323;28;20419;-74
2021/11/24 10:42:38;;;;;;;9.90;4.17;;;9.60;1.00;;;;;;5008759;28;20884;-74
2021/11/24 10:45:13;;;;;;;1.73;1.23;;;9.50;1.00;;;;;;5001659;28;20455;-73
2021/11/24 10:47:52;;;;;;;1.43;1.33;;;9.70;1.00;;;;;;5009185;28;20430;-76
2021/11/24 10:50:22;;;;;;;2.37;1.33;;;9.80;1.00;;;;;;5013476;28;20923;-76
2021/11/24 10:53:27;;;;;;;1.57;1.20;;;9.90;1.00;;;;;;5013430;28;20460;-76
2021/11/24 10:56:12;;;;;;;0.87;0.87;;;10.00;1.00;;;;;;5011340;28;20871;-76
2021/11/24 10:59:16;;;;;;;1.13;1.03;;;10.10;1.00;;;;;;5013335;28;20416;-76
2021/11/24 11:02:19;;;;;;;8.97;3.50;;;10.10;1.00;;;;;;5007037;28;20783;-76
2021/11/24 11:05:02;;;;;;;1.23;0.93;;;10.10;1.00;;;;;;5012730;28;20394;-77
2021/11/24 11:07:57;;;;;;;1.10;1.00;;;10.10;1.00;;;;;;5014316;28;20416;-76
2021/11/24 11:10:29;;;;;;;10.03;1.37;;;10.10;1.00;;;;;;5007458;28;20896;-76
2021/11/24 11:13:04;;;;;;;0.80;0.80;;;10.10;1.00;;;;;;5016743;28;20794;-76
2021/11/24 11:15:43;;;;;;;1.57;1.00;;;10.00;1.00;;;;;;5016904;28;20420;-76
2021/11/24 11:18:14;;;;;;;2.60;1.17;;;9.70;1.00;;;;;;5016582;28;20423;-73
2021/11/24 11:20:42;;;;;;;1.70;1.10;;;9.60;1.00;;;;;;5016101;28;20518;-73
2021/11/24 11:23:09;;;;;;;1.17;1.00;;;9.60;1.00;;;;;;5016187;28;20455;-73
2021/11/24 11:25:38;;;;;;;1.03;0.93;;;9.50;1.00;;;;;;5016496;28;20443;-73
2021/11/24 11:28:05;;;;;;;1.23;1.13;;;9.50;1.00;;;;;;5016214;28;20744;-74
2021/11/24 11:30:32;;;;;;;1.00;1.00;;;9.30;1.00;;;;;;5016238;28;20419;-74
2021/11/24 11:32:58;;;;;;;2.13;1.17;;;9.40;1.00;;;;;;5015821;28;20554;-74
2021/11/24 11:35:25;;;;;;;1.10;0.90;;;9.40;1.00;;;;;;5013426;28;20447;-74
2021/11/24 11:37:52;;;;;;;1.20;1.13;;;9.50;1.00;;;;;;5016302;28;20874;-74
2021/11/24 11:40:18;;;;;;;2.00;0.90;;;9.50;1.00;;;;;;5016188;28;20415;-74
2021/11/24 11:42:46;;;;;;;0.80;0.80;;;9.40;1.00;;;;;;5016206;28;20514;-74
2021/11/24 11:45:16;;;;;;;1.00;0.87;;;9.40;1.00;;;;;;5007300;28;20443;-73
2021/11/24 11:48:08;;;;;;;1.20;1.10;;;9.40;1.00;;;;;;5009411;28;20475;-73
2021/11/24 11:51:09;;;;;;;0.80;0.80;;;9.50;1.00;;;;;;5010633;28;20451;-77
2021/11/24 11:53:40;;;;;;;1.27;1.17;;;9.60;1.00;;;;;;5016019;28;20393;-77
2021/11/24 11:56:37;;;;;;;1.10;1.00;;;9.60;1.00;;;;;;5016086;28;20404;-77
2021/11/24 11:59:16;;;;;;;1.10;1.00;;;9.60;1.00;;;;;;5016145;28;20388;-77
2021/11/24 12:02:00;;;;;;;1.63;1.53;;;9.60;1.00;;;;;;5008853;28;20421;-77
2021/11/24 12:04:47;;;;;;;0.90;0.90;;;9.60;1.00;;;;;;5005665;28;20423;-76
2021/11/24 12:11:03;;;;;;;1.83;1.33;;;9.60;1.00;;;;;;5014834;28;20458;-77
2021/11/24 12:13:39;;;;;;;2.00;1.60;;;9.80;1.00;;;;;;5015961;28;21029;-77
2021/11/24 12:16:41;;;;;;;1.83;1.60;;;9.90;1.00;;;;;;5015742;28;20403;-77
2021/11/24 12:22:50;;;;;;;1.83;1.03;;;9.90;1.00;;;;;;4945747;29;20406;-77
2021/11/24 12:25:25;;;;;;;1.00;1.00;;;10.10;1.00;;;;;;4949137;29;20439;-77
2021/11/24 12:27:57;;;;;;;1.30;1.20;;;10.10;1.00;;;;;;4949605;29;21018;-77
2021/11/24 12:30:53;;;;;;;4.43;1.20;;;10.10;1.00;;;;;;4964534;28;20843;-77
2021/11/24 12:33:53;;;;;;;2.17;1.57;;;9.90;1.00;;;;;;4945914;28;20825;-76
2021/11/24 12:36:25;;;;;;;1.17;1.07;;;10.00;1.00;;;;;;4958623;28;20429;-74
2021/11/24 12:38:54;;;;;;;1.77;1.53;;;10.10;1.00;;;;;;4974231;28;20414;-74
2021/11/24 12:41:27;;;;;;;1.47;1.37;;;10.00;1.00;;;;;;4967613;28;20441;-74
2021/11/24 12:44:03;;;;;;;1.60;1.50;;;10.00;1.00;;;;;;4968256;28;20425;-74
2021/11/24 12:46:38;;;;;;;6.53;1.63;;;10.00;1.00;;;;;;4965170;28;20881;-74
2021/11/24 12:49:17;;;;;;;1.37;1.27;;;10.20;1.00;;;;;;4941869;29;20430;-74
2021/11/24 12:51:48;;;;;;;2.37;1.63;;;10.40;1.00;;;;;;4943311;29;20534;-74
2021/11/24 12:54:17;;;;;;;3.47;1.90;;;10.50;1.00;;;;;;5026863;28;20495;-73
2021/11/24 12:56:48;;;;;;;2.27;1.70;;;11.20;1.00;;;;;;5022022;28;20416;-73
2021/11/24 12:59:35;;;;;;;1.40;1.30;;;10.80;1.00;;;;;;5014949;28;20431;-74
2021/11/24 13:02:06;;;;;;;0.80;0.80;;;10.90;1.00;;;;;;5013985;28;20420;-73
2021/11/24 13:05:09;;;;;;;1.27;0.97;;;10.80;1.00;;;;;;5015359;28;20507;-77
2021/11/24 13:07:39;;;;;;;1.10;1.00;;;10.90;1.00;;;;;;5003759;28;20494;-77
2021/11/24 13:10:09;;;;;;;1.23;0.90;;;11.10;1.00;;;;;;5014768;28;20393;-77
2021/11/24 13:12:39;;;;;;;1.70;0.93;;;11.10;1.00;;;;;;5014753;28;20447;-77
2021/11/24 13:15:10;;;;;;;0.80;0.80;;;11.20;1.00;;;;;;5014499;28;20766;-77
2021/11/24 13:18:09;;;;;;;0.70;0.70;;;11.30;1.00;;;;;;5014582;28;20466;-77
2021/11/24 13:20:39;;;;;;;2.73;0.93;;;11.30;1.00;;;;;;5004032;28;20405;-77
2021/11/24 13:23:39;;;;;;;0.67;0.67;;;11.20;1.00;;;;;;5014394;28;20814;-77
2021/11/24 13:26:05;;;;;;;0.70;0.70;;;11.30;1.00;;;;;;5014467;28;20404;-77
2021/11/24 13:28:31;;;;;;;1.17;0.80;;;11.30;1.00;;;;;;5014781;28;20756;-77
2021/11/24 13:31:38;;;;;;;1.00;0.73;;;11.20;1.00;;;;;;5014677;28;20412;-77
2021/11/24 13:34:07;;;;;;;0.60;0.60;;;11.40;1.00;;;;;;5013874;28;20192;-74
2021/11/24 13:36:44;;;;;;;1.13;0.80;;;11.20;1.00;;;;;;5001226;28;20454;-74
2021/11/24 13:39:10;;;;;;;0.80;0.80;;;;;;;;;;5014273;28;20469;-73
2021/11/24 13:41:38;;;;;;;2.20;1.63;;;11.30;1.00;;;;;;5014040;28;20420;-73
2021/11/24 13:44:07;;;;;;;1.60;1.50;;;11.20;1.00;;;;;;5014265;28;20440;-74
2021/11/24 13:46:50;;;;;;;1.03;0.93;;;11.10;1.00;;;;;;5013445;28;20462;-74
2021/11/24 13:49:28;;;;;;;1.43;0.80;;;11.00;1.00;;;;;;5014730;28;20436;-74
2021/11/24 13:52:09;;;;;;;0.67;0.67;;;11.00;1.00;;;;;;5013705;28;20494;-73
2021/11/24 13:54:56;;;;;;;1.20;1.10;;;10.90;1.00;;;;;;5015685;28;20420;-73
2021/11/24 13:57:25;;;;;;;1.40;1.30;;;10.90;1.00;;;;;;5015896;28;20898;-73
2021/11/24 14:00:00;;;;;;;1.13;0.70;;;10.80;1.00;;;;;;5013970;28;20408;-73
2021/11/24 14:02:27;;;;;;;1.10;0.70;;;10.70;1.00;;;;;;5013920;28;20415;-74
2021/11/24 14:05:14;;;;;;;0.50;0.50;;;10.70;1.00;;;;;;5014372;28;20411;-74
2021/11/24 14:07:44;;;;;;;0.67;0.67;;;10.40;1.00;;;;;;5013737;28;20415;-73
2021/11/24 14:10:16;;;;;;;0.90;0.90;;;10.20;1.00;;;;;;5013895;28;20804;-74
2021/11/24 14:12:43;;;;;;;0.70;0.70;;;9.90;1.00;;;;;;5013578;28;20926;-74
2021/11/24 14:15:14;;;;;;;1.20;1.10;;;9.80;1.00;;;;;;5013704;28;20427;-74